createdAt,value
2018-04-16T19:56:18.756Z,14.70
2018-04-16T20:01:29.268Z,14.70
2018-04-16T20:04:00.155Z,14.60
2018-04-16T20:06:29.431Z,14.60
2018-04-16T20:08:58.715Z,14.60
2018-04-16T20:11:28.744Z,14.60
2018-04-16T20:13:59.147Z,14.60
2018-04-16T20:16:29.289Z,14.50
2018-04-16T20:18:59.322Z,14.50
2018-04-16T20:21:28.631Z,14.50
2018-04-16T20:23:57.958Z,14.50
2018-04-16T20:26:40.771Z,14.50
2018-04-16T20:29:10.709Z,14.50
2018-04-16T20:31:40.005Z,14.40
2018-04-16T20:34:09.264Z,14.40
2018-04-16T20:36:38.564Z,14.40
2018-04-16T20:39:07.890Z,14.40
2018-04-16T20:41:37.299Z,14.40
2018-04-16T20:44:06.593Z,14.40
2018-04-16T20:46:36.043Z,14.30
2018-04-16T20:49:06.339Z,14.30
2018-04-16T20:51:35.605Z,14.30
2018-04-16T20:54:05.744Z,14.30
2018-04-16T20:56:35.021Z,14.30
2018-04-16T20:59:04.482Z,14.40
2018-04-16T21:01:33.884Z,14.40
2018-04-16T21:04:03.963Z,14.40
2018-04-16T21:06:33.253Z,14.40
2018-04-16T21:09:02.531Z,14.40
2018-04-16T21:11:31.862Z,14.50
2018-04-16T21:14:01.185Z,14.40
2018-04-16T21:16:32.114Z,14.40
2018-04-16T21:19:01.617Z,14.40
2018-04-16T21:21:30.962Z,14.30
2018-04-16T21:24:00.267Z,14.20
2018-04-16T21:26:30.489Z,14.00
2018-04-16T21:28:59.776Z,14.00
2018-04-16T21:31:29.026Z,13.90
2018-04-16T21:33:59.006Z,13.90
2018-04-16T21:36:28.275Z,13.70
2018-04-16T21:38:57.741Z,13.70
2018-04-16T21:41:27.028Z,13.60
2018-04-16T21:43:56.336Z,13.60
2018-04-16T21:46:26.523Z,13.50
2018-04-16T21:48:56.656Z,13.40
2018-04-16T21:51:26.055Z,13.40
2018-04-16T21:53:55.348Z,13.30
2018-04-16T21:56:24.703Z,13.20
2018-04-16T21:58:54.019Z,13.10
2018-04-16T22:01:23.315Z,13.20
2018-04-16T22:03:52.795Z,13.20
2018-04-16T22:06:22.063Z,13.10
2018-04-16T22:08:51.393Z,13.10
2018-04-16T22:11:20.656Z,13.00
2018-04-16T22:13:50.673Z,12.70
2018-04-16T22:16:19.963Z,12.70
2018-04-16T22:18:50.004Z,12.60
2018-04-16T22:21:19.380Z,12.60
2018-04-16T22:23:48.621Z,12.60
2018-04-16T22:26:18.154Z,12.60
2018-04-16T22:28:47.488Z,12.50
2018-04-16T22:31:17.531Z,12.50
2018-04-16T22:33:46.797Z,12.50
2018-04-16T22:36:16.093Z,12.50
2018-04-16T22:38:45.345Z,12.40
2018-04-16T22:41:14.635Z,12.40
2018-04-16T22:43:43.999Z,12.30
2018-04-16T22:46:14.027Z,12.20
2018-04-16T22:48:44.395Z,12.20
2018-04-16T22:51:13.665Z,12.20
2018-04-16T22:53:42.945Z,12.20
2018-04-16T22:56:12.989Z,12.10
2018-04-16T22:58:42.563Z,12.10
2018-04-16T23:01:12.805Z,12.20
2018-04-16T23:03:42.104Z,12.10
2018-04-16T23:06:11.402Z,12.10
2018-04-16T23:08:41.438Z,12.00
2018-04-16T23:11:10.820Z,12.00
2018-04-16T23:13:40.140Z,11.90
2018-04-16T23:16:09.399Z,11.80
2018-04-16T23:18:38.785Z,11.80
2018-04-16T23:21:08.053Z,11.70
2018-04-16T23:23:37.323Z,11.60
2018-04-16T23:26:07.376Z,11.60
2018-04-16T23:28:36.663Z,11.50
2018-04-16T23:31:06.021Z,11.50
2018-04-16T23:33:35.378Z,11.40
2018-04-16T23:36:04.667Z,11.30
2018-04-16T23:38:33.936Z,11.30
2018-04-16T23:41:04.063Z,11.20
2018-04-16T23:43:33.329Z,11.20
2018-04-16T23:46:02.593Z,11.20
2018-04-16T23:48:31.968Z,11.20
2018-04-16T23:51:01.999Z,11.00
2018-04-16T23:53:31.562Z,11.00
2018-04-16T23:56:00.846Z,10.90
2018-04-16T23:58:30.120Z,10.90
